sensor_id;sensor_type;location;lat;lon;timestamp;temperature;humidity
45619;DHT22;31343;47.520;19.144;2022-12-05T00:03:47;5.80;99.90
45619;DHT22;31343;47.520;19.144;2022-12-05T00:06:14;5.80;99.90
45619;DHT22;31343;47.520;19.144;2022-12-05T00:08:40;5.90;99.90
45619;DHT22;31343;47.520;19.144;2022-12-05T00:11:14;5.70;99.90
45619;DHT22;31343;47.520;19.144;2022-12-05T00:13:40;5.70;99.90
45619;DHT22;31343;47.520;19.144;2022-12-05T00:16:12;5.70;99.90
45619;DHT22;31343;47.520;19.144;2022-12-05T00:18:38;5.60;99.90
45619;DHT22;31343;47.520;19.144;2022-12-05T00:21:05;5.70;99.90
45619;DHT22;31343;47.520;19.144;2022-12-05T00:23:31;5.70;99.90
45619;DHT22;31343;47.520;19.144;2022-12-05T00:26:01;5.70;99.90
45619;DHT22;31343;47.520;19.144;2022-12-05T00:28:26;5.60;99.90
45619;DHT22;31343;47.520;19.144;2022-12-05T00:30:52;5.60;99.90
45619;DHT22;31343;47.520;19.144;2022-12-05T00:33:18;5.60;99.90
45619;DHT22;31343;47.520;19.144;2022-12-05T00:35:43;5.70;99.90
45619;DHT22;31343;47.520;19.144;2022-12-05T00:38:09;5.70;99.90
45619;DHT22;31343;47.520;19.144;2022-12-05T00:40:35;5.70;99.90
45619;DHT22;31343;47.520;19.144;2022-12-05T00:43:01;5.80;99.90
45619;DHT22;31343;47.520;19.144;2022-12-05T00:45:27;5.70;99.90
45619;DHT22;31343;47.520;19.144;2022-12-05T00:47:52;5.70;99.90
45619;DHT22;31343;47.520;19.144;2022-12-05T00:50:18;5.60;99.90
45619;DHT22;31343;47.520;19.144;2022-12-05T00:52:44;5.60;99.90
45619;DHT22;31343;47.520;19.144;2022-12-05T00:55:09;5.60;99.90
45619;DHT22;31343;47.520;19.144;2022-12-05T00:57:35;5.50;99.90
45619;DHT22;31343;47.520;19.144;2022-12-05T01:00:02;5.50;99.90
45619;DHT22;31343;47.520;19.144;2022-12-05T01:02:29;5.60;99.90
45619;DHT22;31343;47.520;19.144;2022-12-05T01:04:54;5.50;99.90
45619;DHT22;31343;47.520;19.144;2022-12-05T01:07:20;5.50;99.90
45619;DHT22;31343;47.520;19.144;2022-12-05T01:09:46;5.60;99.90
45619;DHT22;31343;47.520;19.144;2022-12-05T01:12:11;5.60;99.90
45619;DHT22;31343;47.520;19.144;2022-12-05T01:14:37;5.50;99.90
45619;DHT22;31343;47.520;19.144;2022-12-05T01:17:03;5.50;99.90
45619;DHT22;31343;47.520;19.144;2022-12-05T01:19:30;5.50;99.90
45619;DHT22;31343;47.520;19.144;2022-12-05T01:21:56;5.50;99.90
45619;DHT22;31343;47.520;19.144;2022-12-05T01:24:24;5.60;99.90
45619;DHT22;31343;47.520;19.144;2022-12-05T01:26:50;5.60;99.90
45619;DHT22;31343;47.520;19.144;2022-12-05T01:29:17;5.60;99.90
45619;DHT22;31343;47.520;19.144;2022-12-05T01:31:44;5.60;99.90
45619;DHT22;31343;47.520;19.144;2022-12-05T01:34:12;5.60;99.90
45619;DHT22;31343;47.520;19.144;2022-12-05T01:36:39;5.60;99.90
45619;DHT22;31343;47.520;19.144;2022-12-05T01:39:06;5.50;99.90
45619;DHT22;31343;47.520;19.144;2022-12-05T01:41:35;5.50;99.90
45619;DHT22;31343;47.520;19.144;2022-12-05T01:44:56;5.30;99.90
45619;DHT22;31343;47.520;19.144;2022-12-05T01:46:52;5.30;99.90
45619;DHT22;31343;47.520;19.144;2022-12-05T01:49:19;5.30;99.90
45619;DHT22;31343;47.520;19.144;2022-12-05T01:51:49;5.20;99.90
45619;DHT22;31343;47.520;19.144;2022-12-05T01:54:17;5.20;99.90
45619;DHT22;31343;47.520;19.144;2022-12-05T01:56:49;5.20;99.90
45619;DHT22;31343;47.520;19.144;2022-12-05T01:59:15;5.20;99.90
45619;DHT22;31343;47.520;19.144;2022-12-05T02:01:42;5.10;99.90
45619;DHT22;31343;47.520;19.144;2022-12-05T02:04:09;5.10;99.90
45619;DHT22;31343;47.520;19.144;2022-12-05T02:06:35;5.20;99.90
45619;DHT22;31343;47.520;19.144;2022-12-05T02:09:01;5.10;99.90
45619;DHT22;31343;47.520;19.144;2022-12-05T02:11:29;5.20;99.90
45619;DHT22;31343;47.520;19.144;2022-12-05T02:14:17;5.20;99.90
45619;DHT22;31343;47.520;19.144;2022-12-05T02:16:59;5.20;99.90
45619;DHT22;31343;47.520;19.144;2022-12-05T02:30:40;5.20;99.90
45619;DHT22;31343;47.520;19.144;2022-12-05T02:33:28;5.20;99.90
45619;DHT22;31343;47.520;19.144;2022-12-05T02:36:02;5.20;99.90
45619;DHT22;31343;47.520;19.144;2022-12-05T02:38:41;5.20;99.90
45619;DHT22;31343;47.520;19.144;2022-12-05T02:41:20;5.30;99.90
45619;DHT22;31343;47.520;19.144;2022-12-05T02:46:24;5.30;99.90
45619;DHT22;31343;47.520;19.144;2022-12-05T02:48:59;5.20;99.90
45619;DHT22;31343;47.520;19.144;2022-12-05T02:51:30;5.30;99.90
45619;DHT22;31343;47.520;19.144;2022-12-05T02:54:01;5.20;99.90
45619;DHT22;31343;47.520;19.144;2022-12-05T02:56:32;5.20;99.90
45619;DHT22;31343;47.520;19.144;2022-12-05T02:58:59;5.10;99.90
45619;DHT22;31343;47.520;19.144;2022-12-05T03:01:29;5.20;99.90
45619;DHT22;31343;47.520;19.144;2022-12-05T03:03:57;5.10;99.90
45619;DHT22;31343;47.520;19.144;2022-12-05T03:06:42;5.10;99.90
45619;DHT22;31343;47.520;19.144;2022-12-05T03:09:22;5.20;99.90
45619;DHT22;31343;47.520;19.144;2022-12-05T03:11:59;5.10;99.90
45619;DHT22;31343;47.520;19.144;2022-12-05T03:14:36;5.20;99.90
45619;DHT22;31343;47.520;19.144;2022-12-05T03:17:08;5.20;99.90
45619;DHT22;31343;47.520;19.144;2022-12-05T03:19:52;5.20;99.90
45619;DHT22;31343;47.520;19.144;2022-12-05T03:25:26;5.20;99.90
45619;DHT22;31343;47.520;19.144;2022-12-05T03:28:24;5.10;99.90
45619;DHT22;31343;47.520;19.144;2022-12-05T03:30:54;5.10;99.90
45619;DHT22;31343;47.520;19.144;2022-12-05T03:33:25;5.20;99.90
45619;DHT22;31343;47.520;19.144;2022-12-05T03:36:01;5.10;99.90
45619;DHT22;31343;47.520;19.144;2022-12-05T03:38:34;5.20;99.90
45619;DHT22;31343;47.520;19.144;2022-12-05T03:43:57;5.20;99.90
45619;DHT22;31343;47.520;19.144;2022-12-05T03:46:44;5.20;99.90
45619;DHT22;31343;47.520;19.144;2022-12-05T03:49:19;5.20;99.90
45619;DHT22;31343;47.520;19.144;2022-12-05T03:51:54;5.10;99.90
45619;DHT22;31343;47.520;19.144;2022-12-05T03:54:22;5.20;99.90
45619;DHT22;31343;47.520;19.144;2022-12-05T03:57:15;5.10;99.90
45619;DHT22;31343;47.520;19.144;2022-12-05T03:59:46;5.20;99.90
45619;DHT22;31343;47.520;19.144;2022-12-05T04:02:15;5.20;99.90
45619;DHT22;31343;47.520;19.144;2022-12-05T04:04:55;5.20;99.90
45619;DHT22;31343;47.520;19.144;2022-12-05T04:07:22;5.20;99.90
45619;DHT22;31343;47.520;19.144;2022-12-05T04:09:57;5.20;99.90
45619;DHT22;31343;47.520;19.144;2022-12-05T04:12:28;5.10;99.90
45619;DHT22;31343;47.520;19.144;2022-12-05T04:14:58;5.20;99.90
45619;DHT22;31343;47.520;19.144;2022-12-05T04:17:33;5.20;99.90
45619;DHT22;31343;47.520;19.144;2022-12-05T04:20:13;5.20;99.90
45619;DHT22;31343;47.520;19.144;2022-12-05T04:22:59;5.10;99.90
45619;DHT22;31343;47.520;19.144;2022-12-05T04:25:35;5.20;99.90
45619;DHT22;31343;47.520;19.144;2022-12-05T04:30:44;5.20;99.90
45619;DHT22;31343;47.520;19.144;2022-12-05T04:36:04;5.10;99.90
45619;DHT22;31343;47.520;19.144;2022-12-05T04:38:54;5.10;99.90
45619;DHT22;31343;47.520;19.144;2022-12-05T04:41:49;5.20;99.90
45619;DHT22;31343;47.520;19.144;2022-12-05T04:44:19;5.20;99.90
45619;DHT22;31343;47.520;19.144;2022-12-05T04:46:47;5.20;99.90
45619;DHT22;31343;47.520;19.144;2022-12-05T04:49:18;5.20;99.90
45619;DHT22;31343;47.520;19.144;2022-12-05T04:51:46;5.20;99.90
45619;DHT22;31343;47.520;19.144;2022-12-05T04:56:55;5.20;99.90
45619;DHT22;31343;47.520;19.144;2022-12-05T04:59:24;5.20;99.90
45619;DHT22;31343;47.520;19.144;2022-12-05T05:01:53;5.20;99.90
45619;DHT22;31343;47.520;19.144;2022-12-05T05:04:33;5.20;99.90
45619;DHT22;31343;47.520;19.144;2022-12-05T05:07:07;5.20;99.90
45619;DHT22;31343;47.520;19.144;2022-12-05T05:09:34;5.20;99.90
45619;DHT22;31343;47.520;19.144;2022-12-05T05:12:00;5.10;99.90
45619;DHT22;31343;47.520;19.144;2022-12-05T05:14:26;5.20;99.90
45619;DHT22;31343;47.520;19.144;2022-12-05T05:16:52;5.20;99.90
45619;DHT22;31343;47.520;19.144;2022-12-05T05:19:18;5.10;99.90
45619;DHT22;31343;47.520;19.144;2022-12-05T05:21:44;5.20;99.90
45619;DHT22;31343;47.520;19.144;2022-12-05T05:24:10;5.20;99.90
45619;DHT22;31343;47.520;19.144;2022-12-05T05:26:39;5.30;99.90
45619;DHT22;31343;47.520;19.144;2022-12-05T05:29:05;5.20;99.90
45619;DHT22;31343;47.520;19.144;2022-12-05T05:31:31;5.20;99.90
45619;DHT22;31343;47.520;19.144;2022-12-05T05:33:58;5.30;99.90
45619;DHT22;31343;47.520;19.144;2022-12-05T05:36:26;5.20;99.90
45619;DHT22;31343;47.520;19.144;2022-12-05T05:38:54;5.30;99.90
45619;DHT22;31343;47.520;19.144;2022-12-05T05:41:31;5.40;99.90
45619;DHT22;31343;47.520;19.144;2022-12-05T05:43:58;5.30;99.90
45619;DHT22;31343;47.520;19.144;2022-12-05T05:46:26;5.30;99.90
45619;DHT22;31343;47.520;19.144;2022-12-05T05:48:53;5.30;99.90
45619;DHT22;31343;47.520;19.144;2022-12-05T05:51:19;5.30;99.90
45619;DHT22;31343;47.520;19.144;2022-12-05T05:53:46;5.30;99.90
45619;DHT22;31343;47.520;19.144;2022-12-05T05:56:17;5.30;99.90
45619;DHT22;31343;47.520;19.144;2022-12-05T05:58:43;5.20;99.90
45619;DHT22;31343;47.520;19.144;2022-12-05T06:01:11;5.20;99.90
45619;DHT22;31343;47.520;19.144;2022-12-05T06:03:37;5.30;99.90
45619;DHT22;31343;47.520;19.144;2022-12-05T06:06:06;5.30;99.90
45619;DHT22;31343;47.520;19.144;2022-12-05T06:08:33;5.30;99.90
45619;DHT22;31343;47.520;19.144;2022-12-05T06:11:03;5.40;99.90
45619;DHT22;31343;47.520;19.144;2022-12-05T06:13:29;5.30;99.90
45619;DHT22;31343;47.520;19.144;2022-12-05T06:15:55;5.30;99.90
45619;DHT22;31343;47.520;19.144;2022-12-05T06:18:20;5.30;99.90
45619;DHT22;31343;47.520;19.144;2022-12-05T06:20:56;5.30;99.90
45619;DHT22;31343;47.520;19.144;2022-12-05T06:23:23;5.30;99.90
45619;DHT22;31343;47.520;19.144;2022-12-05T06:25:51;5.30;99.90
45619;DHT22;31343;47.520;19.144;2022-12-05T06:28:18;5.30;99.90
45619;DHT22;31343;47.520;19.144;2022-12-05T06:30:44;5.30;99.90
45619;DHT22;31343;47.520;19.144;2022-12-05T06:33:11;5.30;99.90
45619;DHT22;31343;47.520;19.144;2022-12-05T06:35:36;5.40;99.90
45619;DHT22;31343;47.520;19.144;2022-12-05T06:38:03;5.30;99.90
45619;DHT22;31343;47.520;19.144;2022-12-05T06:40:28;5.40;99.90
45619;DHT22;31343;47.520;19.144;2022-12-05T06:42:54;5.40;99.90
45619;DHT22;31343;47.520;19.144;2022-12-05T06:45:20;5.40;99.90
45619;DHT22;31343;47.520;19.144;2022-12-05T06:47:46;5.40;99.90
45619;DHT22;31343;47.520;19.144;2022-12-05T06:50:12;5.40;99.90
45619;DHT22;31343;47.520;19.144;2022-12-05T06:52:37;5.40;99.90
45619;DHT22;31343;47.520;19.144;2022-12-05T06:55:03;5.40;99.90
45619;DHT22;31343;47.520;19.144;2022-12-05T06:57:29;5.50;99.90
45619;DHT22;31343;47.520;19.144;2022-12-05T06:59:55;5.50;99.90
45619;DHT22;31343;47.520;19.144;2022-12-05T07:02:41;5.50;99.90
45619;DHT22;31343;47.520;19.144;2022-12-05T07:05:08;5.40;99.90
45619;DHT22;31343;47.520;19.144;2022-12-05T07:07:35;5.40;99.90
45619;DHT22;31343;47.520;19.144;2022-12-05T07:10:02;5.50;99.90
45619;DHT22;31343;47.520;19.144;2022-12-05T07:12:28;5.40;99.90
45619;DHT22;31343;47.520;19.144;2022-12-05T07:14:54;5.50;99.90
45619;DHT22;31343;47.520;19.144;2022-12-05T07:17:20;5.50;99.90
45619;DHT22;31343;47.520;19.144;2022-12-05T07:19:47;5.50;99.90
45619;DHT22;31343;47.520;19.144;2022-12-05T07:22:14;5.50;99.90
45619;DHT22;31343;47.520;19.144;2022-12-05T07:24:39;5.50;99.90
45619;DHT22;31343;47.520;19.144;2022-12-05T07:27:05;5.50;99.90
45619;DHT22;31343;47.520;19.144;2022-12-05T07:29:31;5.60;99.90
45619;DHT22;31343;47.520;19.144;2022-12-05T07:31:57;5.60;99.90
45619;DHT22;31343;47.520;19.144;2022-12-05T07:34:23;5.70;99.90
45619;DHT22;31343;47.520;19.144;2022-12-05T07:36:49;5.60;99.90
45619;DHT22;31343;47.520;19.144;2022-12-05T07:39:14;5.60;99.90
45619;DHT22;31343;47.520;19.144;2022-12-05T07:41:40;5.70;99.90
45619;DHT22;31343;47.520;19.144;2022-12-05T07:44:08;5.70;99.90
45619;DHT22;31343;47.520;19.144;2022-12-05T07:46:35;5.70;99.90
45619;DHT22;31343;47.520;19.144;2022-12-05T07:49:00;5.70;99.90
45619;DHT22;31343;47.520;19.144;2022-12-05T07:51:26;5.70;99.90
45619;DHT22;31343;47.520;19.144;2022-12-05T07:53:52;5.60;99.90
45619;DHT22;31343;47.520;19.144;2022-12-05T07:56:18;5.60;99.90
45619;DHT22;31343;47.520;19.144;2022-12-05T07:58:47;5.70;99.90
45619;DHT22;31343;47.520;19.144;2022-12-05T08:01:22;5.70;99.90
45619;DHT22;31343;47.520;19.144;2022-12-05T08:03:49;5.70;99.90
45619;DHT22;31343;47.520;19.144;2022-12-05T08:06:19;5.70;99.90
45619;DHT22;31343;47.520;19.144;2022-12-05T08:08:45;5.70;99.90
45619;DHT22;31343;47.520;19.144;2022-12-05T08:11:17;5.70;99.90
45619;DHT22;31343;47.520;19.144;2022-12-05T08:13:44;5.70;99.90
45619;DHT22;31343;47.520;19.144;2022-12-05T08:16:12;5.80;99.90
45619;DHT22;31343;47.520;19.144;2022-12-05T08:18:39;5.90;99.90
45619;DHT22;31343;47.520;19.144;2022-12-05T08:21:13;5.90;99.90
45619;DHT22;31343;47.520;19.144;2022-12-05T08:23:40;5.90;99.90
45619;DHT22;31343;47.520;19.144;2022-12-05T08:26:14;5.80;99.90
45619;DHT22;31343;47.520;19.144;2022-12-05T08:28:42;5.80;99.90
45619;DHT22;31343;47.520;19.144;2022-12-05T08:31:16;5.80;99.90
45619;DHT22;31343;47.520;19.144;2022-12-05T08:33:42;5.80;99.90
45619;DHT22;31343;47.520;19.144;2022-12-05T08:36:11;5.80;99.90
45619;DHT22;31343;47.520;19.144;2022-12-05T08:38:38;5.90;99.90
45619;DHT22;31343;47.520;19.144;2022-12-05T08:41:07;5.80;99.90
45619;DHT22;31343;47.520;19.144;2022-12-05T08:43:33;5.90;99.90
45619;DHT22;31343;47.520;19.144;2022-12-05T08:45:59;6.00;99.90
45619;DHT22;31343;47.520;19.144;2022-12-05T08:48:26;6.00;99.90
45619;DHT22;31343;47.520;19.144;2022-12-05T08:50:53;6.00;99.90
45619;DHT22;31343;47.520;19.144;2022-12-05T08:53:18;6.10;99.90
45619;DHT22;31343;47.520;19.144;2022-12-05T08:55:45;6.10;99.90
45619;DHT22;31343;47.520;19.144;2022-12-05T08:58:13;6.10;99.90
45619;DHT22;31343;47.520;19.144;2022-12-05T09:00:39;6.00;99.90
45619;DHT22;31343;47.520;19.144;2022-12-05T09:03:05;6.00;99.90
45619;DHT22;31343;47.520;19.144;2022-12-05T09:05:31;6.10;99.90
45619;DHT22;31343;47.520;19.144;2022-12-05T09:07:58;6.10;99.90
45619;DHT22;31343;47.520;19.144;2022-12-05T09:10:24;6.10;99.90
45619;DHT22;31343;47.520;19.144;2022-12-05T09:12:51;6.10;99.90
45619;DHT22;31343;47.520;19.144;2022-12-05T09:15:17;6.10;99.90
45619;DHT22;31343;47.520;19.144;2022-12-05T09:17:43;6.10;99.90
45619;DHT22;31343;47.520;19.144;2022-12-05T09:20:09;6.20;99.90
45619;DHT22;31343;47.520;19.144;2022-12-05T09:22:39;6.10;99.90
45619;DHT22;31343;47.520;19.144;2022-12-05T09:25:05;6.20;99.90
45619;DHT22;31343;47.520;19.144;2022-12-05T09:27:31;6.20;99.90
45619;DHT22;31343;47.520;19.144;2022-12-05T09:29:57;6.20;99.90
45619;DHT22;31343;47.520;19.144;2022-12-05T09:32:23;6.40;99.90
45619;DHT22;31343;47.520;19.144;2022-12-05T09:34:48;6.30;99.90
45619;DHT22;31343;47.520;19.144;2022-12-05T09:37:15;6.40;99.90
45619;DHT22;31343;47.520;19.144;2022-12-05T09:39:45;6.40;99.90
45619;DHT22;31343;47.520;19.144;2022-12-05T09:42:42;6.40;99.90
45619;DHT22;31343;47.520;19.144;2022-12-05T09:45:27;6.40;99.90
45619;DHT22;31343;47.520;19.144;2022-12-05T09:48:09;6.50;99.90
45619;DHT22;31343;47.520;19.144;2022-12-05T09:50:44;6.60;99.90
45619;DHT22;31343;47.520;19.144;2022-12-05T09:53:32;6.60;99.90
45619;DHT22;31343;47.520;19.144;2022-12-05T09:56:22;6.60;99.90
45619;DHT22;31343;47.520;19.144;2022-12-05T09:58:51;6.50;99.90
45619;DHT22;31343;47.520;19.144;2022-12-05T10:07:02;6.70;99.90
45619;DHT22;31343;47.520;19.144;2022-12-05T10:09:47;6.70;99.90
45619;DHT22;31343;47.520;19.144;2022-12-05T10:15:22;6.60;99.90
45619;DHT22;31343;47.520;19.144;2022-12-05T10:20:47;6.60;99.90
45619;DHT22;31343;47.520;19.144;2022-12-05T10:23:22;6.50;99.90
45619;DHT22;31343;47.520;19.144;2022-12-05T10:25:54;6.60;99.90
45619;DHT22;31343;47.520;19.144;2022-12-05T10:28:51;6.60;99.90
45619;DHT22;31343;47.520;19.144;2022-12-05T10:31:25;6.70;99.90
45619;DHT22;31343;47.520;19.144;2022-12-05T10:34:05;6.70;99.90
45619;DHT22;31343;47.520;19.144;2022-12-05T10:36:33;6.70;99.90
45619;DHT22;31343;47.520;19.144;2022-12-05T10:39:00;6.70;99.90
45619;DHT22;31343;47.520;19.144;2022-12-05T10:41:26;6.80;99.90
45619;DHT22;31343;47.520;19.144;2022-12-05T10:43:53;6.80;99.90
45619;DHT22;31343;47.520;19.144;2022-12-05T10:46:21;6.90;99.90
45619;DHT22;31343;47.520;19.144;2022-12-05T10:48:47;6.80;99.90
45619;DHT22;31343;47.520;19.144;2022-12-05T10:51:26;7.00;99.90
45619;DHT22;31343;47.520;19.144;2022-12-05T10:53:52;7.20;99.90
45619;DHT22;31343;47.520;19.144;2022-12-05T10:56:37;7.30;99.90
45619;DHT22;31343;47.520;19.144;2022-12-05T10:59:05;7.20;99.90
45619;DHT22;31343;47.520;19.144;2022-12-05T11:01:31;7.10;99.90
45619;DHT22;31343;47.520;19.144;2022-12-05T11:04:00;7.10;99.90
45619;DHT22;31343;47.520;19.144;2022-12-05T11:06:32;7.10;99.90
45619;DHT22;31343;47.520;19.144;2022-12-05T11:09:02;7.10;99.90
45619;DHT22;31343;47.520;19.144;2022-12-05T11:11:30;7.10;99.90
45619;DHT22;31343;47.520;19.144;2022-12-05T11:14:06;7.10;99.90
45619;DHT22;31343;47.520;19.144;2022-12-05T11:16:34;7.10;99.90
45619;DHT22;31343;47.520;19.144;2022-12-05T11:19:35;7.10;99.90
45619;DHT22;31343;47.520;19.144;2022-12-05T11:22:02;7.00;99.90
45619;DHT22;31343;47.520;19.144;2022-12-05T11:24:33;7.00;99.90
45619;DHT22;31343;47.520;19.144;2022-12-05T11:27:19;6.90;99.90
45619;DHT22;31343;47.520;19.144;2022-12-05T11:32:22;7.00;99.90
45619;DHT22;31343;47.520;19.144;2022-12-05T11:35:36;7.10;99.90
45619;DHT22;31343;47.520;19.144;2022-12-05T11:38:03;7.10;99.90
45619;DHT22;31343;47.520;19.144;2022-12-05T11:45:54;7.10;99.90
45619;DHT22;31343;47.520;19.144;2022-12-05T11:48:39;7.00;99.90
45619;DHT22;31343;47.520;19.144;2022-12-05T11:51:41;7.00;99.90
45619;DHT22;31343;47.520;19.144;2022-12-05T12:05:53;7.00;99.90
45619;DHT22;31343;47.520;19.144;2022-12-05T12:08:24;7.10;99.90
45619;DHT22;31343;47.520;19.144;2022-12-05T12:11:16;7.20;99.90
45619;DHT22;31343;47.520;19.144;2022-12-05T12:17:11;7.10;99.90
45619;DHT22;31343;47.520;19.144;2022-12-05T12:22:46;7.20;99.90
45619;DHT22;31343;47.520;19.144;2022-12-05T12:27:59;7.30;99.90
45619;DHT22;31343;47.520;19.144;2022-12-05T12:33:33;7.20;99.90
45619;DHT22;31343;47.520;19.144;2022-12-05T12:39:18;7.20;99.90
45619;DHT22;31343;47.520;19.144;2022-12-05T12:44:33;7.20;99.90
45619;DHT22;31343;47.520;19.144;2022-12-05T12:50:02;7.10;99.90
45619;DHT22;31343;47.520;19.144;2022-12-05T12:55:38;7.30;99.90
45619;DHT22;31343;47.520;19.144;2022-12-05T13:00:54;7.20;99.90
45619;DHT22;31343;47.520;19.144;2022-12-05T13:06:21;7.10;99.90
45619;DHT22;31343;47.520;19.144;2022-12-05T13:11:15;7.20;99.90
45619;DHT22;31343;47.520;19.144;2022-12-05T13:13:50;7.10;99.90
45619;DHT22;31343;47.520;19.144;2022-12-05T13:16:45;7.00;99.90
45619;DHT22;31343;47.520;19.144;2022-12-05T13:19:37;7.10;99.90
45619;DHT22;31343;47.520;19.144;2022-12-05T13:22:06;7.00;99.90
45619;DHT22;31343;47.520;19.144;2022-12-05T13:24:33;7.10;99.90
45619;DHT22;31343;47.520;19.144;2022-12-05T13:27:01;7.10;99.90
45619;DHT22;31343;47.520;19.144;2022-12-05T13:29:39;7.20;99.90
45619;DHT22;31343;47.520;19.144;2022-12-05T13:34:56;7.10;99.90
45619;DHT22;31343;47.520;19.144;2022-12-05T13:37:28;7.10;99.90
45619;DHT22;31343;47.520;19.144;2022-12-05T13:40:24;7.10;99.90
45619;DHT22;31343;47.520;19.144;2022-12-05T13:43:12;7.10;99.90
45619;DHT22;31343;47.520;19.144;2022-12-05T13:45:39;7.10;99.90
45619;DHT22;31343;47.520;19.144;2022-12-05T13:48:13;7.20;99.90
45619;DHT22;31343;47.520;19.144;2022-12-05T13:53:30;7.20;99.90
45619;DHT22;31343;47.520;19.144;2022-12-05T13:55:58;7.30;99.90
45619;DHT22;31343;47.520;19.144;2022-12-05T14:00:50;7.30;99.90
45619;DHT22;31343;47.520;19.144;2022-12-05T14:17:26;7.50;99.90
45619;DHT22;31343;47.520;19.144;2022-12-05T14:22:43;7.50;99.90
45619;DHT22;31343;47.520;19.144;2022-12-05T14:26:08;7.60;99.90
45619;DHT22;31343;47.520;19.144;2022-12-05T14:33:43;7.60;99.90
45619;DHT22;31343;47.520;19.144;2022-12-05T14:36:15;7.60;99.90
45619;DHT22;31343;47.520;19.144;2022-12-05T14:38:44;7.50;99.90
45619;DHT22;31343;47.520;19.144;2022-12-05T14:41:15;7.40;99.90
45619;DHT22;31343;47.520;19.144;2022-12-05T14:43:42;7.40;99.90
45619;DHT22;31343;47.520;19.144;2022-12-05T14:46:17;7.50;99.90
45619;DHT22;31343;47.520;19.144;2022-12-05T14:48:46;7.50;99.90
45619;DHT22;31343;47.520;19.144;2022-12-05T14:54:05;7.60;99.90
45619;DHT22;31343;47.520;19.144;2022-12-05T14:56:34;7.50;99.90
45619;DHT22;31343;47.520;19.144;2022-12-05T14:59:25;7.50;99.90
45619;DHT22;31343;47.520;19.144;2022-12-05T15:01:58;7.50;99.90
45619;DHT22;31343;47.520;19.144;2022-12-05T15:04:50;7.50;99.90
45619;DHT22;31343;47.520;19.144;2022-12-05T15:07:19;7.50;99.90
45619;DHT22;31343;47.520;19.144;2022-12-05T15:15:18;7.50;99.90
45619;DHT22;31343;47.520;19.144;2022-12-05T15:17:47;7.50;99.90
45619;DHT22;31343;47.520;19.144;2022-12-05T15:26:40;7.60;99.90
45619;DHT22;31343;47.520;19.144;2022-12-05T15:29:12;7.60;99.90
45619;DHT22;31343;47.520;19.144;2022-12-05T15:34:50;7.50;99.90
45619;DHT22;31343;47.520;19.144;2022-12-05T15:37:22;7.50;99.90
45619;DHT22;31343;47.520;19.144;2022-12-05T15:40:00;7.50;99.90
45619;DHT22;31343;47.520;19.144;2022-12-05T15:42:34;7.50;99.90
45619;DHT22;31343;47.520;19.144;2022-12-05T15:50:42;7.60;99.90
45619;DHT22;31343;47.520;19.144;2022-12-05T15:53:14;7.60;99.90
45619;DHT22;31343;47.520;19.144;2022-12-05T15:58:30;7.50;99.90
45619;DHT22;31343;47.520;19.144;2022-12-05T16:01:23;7.50;99.90
45619;DHT22;31343;47.520;19.144;2022-12-05T16:04:13;7.50;99.90
45619;DHT22;31343;47.520;19.144;2022-12-05T16:06:50;7.50;99.90
45619;DHT22;31343;47.520;19.144;2022-12-05T16:09:20;7.50;99.90
45619;DHT22;31343;47.520;19.144;2022-12-05T16:12:04;7.50;99.90
45619;DHT22;31343;47.520;19.144;2022-12-05T16:14:34;7.50;99.90
45619;DHT22;31343;47.520;19.144;2022-12-05T16:17:02;7.60;99.90
45619;DHT22;31343;47.520;19.144;2022-12-05T16:19:29;7.60;99.90
45619;DHT22;31343;47.520;19.144;2022-12-05T16:22:15;7.60;99.90
45619;DHT22;31343;47.520;19.144;2022-12-05T16:25:31;7.70;99.90
45619;DHT22;31343;47.520;19.144;2022-12-05T16:27:34;7.70;99.90
45619;DHT22;31343;47.520;19.144;2022-12-05T16:30:29;7.80;99.90
45619;DHT22;31343;47.520;19.144;2022-12-05T16:33:04;7.80;99.90
45619;DHT22;31343;47.520;19.144;2022-12-05T16:38:16;7.70;99.90
45619;DHT22;31343;47.520;19.144;2022-12-05T16:40:53;7.70;99.90
45619;DHT22;31343;47.520;19.144;2022-12-05T16:43:25;7.70;99.90
45619;DHT22;31343;47.520;19.144;2022-12-05T16:45:54;7.60;99.90
45619;DHT22;31343;47.520;19.144;2022-12-05T16:48:24;7.70;99.90
45619;DHT22;31343;47.520;19.144;2022-12-05T16:50:51;7.60;99.90
45619;DHT22;31343;47.520;19.144;2022-12-05T16:53:27;7.60;99.90
45619;DHT22;31343;47.520;19.144;2022-12-05T16:55:54;7.70;99.90
45619;DHT22;31343;47.520;19.144;2022-12-05T16:58:22;7.70;99.90
45619;DHT22;31343;47.520;19.144;2022-12-05T17:00:49;7.70;99.90
45619;DHT22;31343;47.520;19.144;2022-12-05T17:03:16;7.80;99.90
45619;DHT22;31343;47.520;19.144;2022-12-05T17:05:42;7.80;99.90
45619;DHT22;31343;47.520;19.144;2022-12-05T17:08:08;7.80;99.90
45619;DHT22;31343;47.520;19.144;2022-12-05T17:10:34;7.80;99.90
45619;DHT22;31343;47.520;19.144;2022-12-05T17:13:00;7.80;99.90
45619;DHT22;31343;47.520;19.144;2022-12-05T17:15:27;7.80;99.90
45619;DHT22;31343;47.520;19.144;2022-12-05T17:17:53;7.90;99.90
45619;DHT22;31343;47.520;19.144;2022-12-05T17:20:19;7.90;99.90
45619;DHT22;31343;47.520;19.144;2022-12-05T17:22:45;7.80;99.90
45619;DHT22;31343;47.520;19.144;2022-12-05T17:25:22;7.80;99.90
45619;DHT22;31343;47.520;19.144;2022-12-05T17:27:51;7.80;99.90
45619;DHT22;31343;47.520;19.144;2022-12-05T17:30:17;7.80;99.90
45619;DHT22;31343;47.520;19.144;2022-12-05T17:32:42;7.70;99.90
45619;DHT22;31343;47.520;19.144;2022-12-05T17:35:16;7.60;99.90
45619;DHT22;31343;47.520;19.144;2022-12-05T17:37:42;7.50;99.90
45619;DHT22;31343;47.520;19.144;2022-12-05T17:40:08;7.50;99.90
45619;DHT22;31343;47.520;19.144;2022-12-05T17:42:34;7.40;99.90
45619;DHT22;31343;47.520;19.144;2022-12-05T17:45:00;7.40;99.90
45619;DHT22;31343;47.520;19.144;2022-12-05T17:47:25;7.40;99.90
45619;DHT22;31343;47.520;19.144;2022-12-05T17:49:52;7.40;99.90
45619;DHT22;31343;47.520;19.144;2022-12-05T17:52:18;7.40;99.90
45619;DHT22;31343;47.520;19.144;2022-12-05T17:54:43;7.40;99.90
45619;DHT22;31343;47.520;19.144;2022-12-05T17:57:09;7.40;99.90
45619;DHT22;31343;47.520;19.144;2022-12-05T17:59:35;7.50;99.90
45619;DHT22;31343;47.520;19.144;2022-12-05T18:02:02;7.40;99.90
45619;DHT22;31343;47.520;19.144;2022-12-05T18:04:28;7.40;99.90
45619;DHT22;31343;47.520;19.144;2022-12-05T18:06:54;7.50;99.90
45619;DHT22;31343;47.520;19.144;2022-12-05T18:09:19;7.50;99.90
45619;DHT22;31343;47.520;19.144;2022-12-05T18:11:45;7.60;99.90
45619;DHT22;31343;47.520;19.144;2022-12-05T18:14:11;7.50;99.90
45619;DHT22;31343;47.520;19.144;2022-12-05T18:16:36;7.60;99.90
45619;DHT22;31343;47.520;19.144;2022-12-05T18:19:02;7.50;99.90
45619;DHT22;31343;47.520;19.144;2022-12-05T18:21:28;7.50;99.90
45619;DHT22;31343;47.520;19.144;2022-12-05T18:23:53;7.50;99.90
45619;DHT22;31343;47.520;19.144;2022-12-05T18:26:19;7.50;99.90